Wind From: 11-12-2017 04:25 Until: 16:00 warning for: Wind Level: Orange info button

Power and phone distribution networks may be disrupted for relatively long periods., Roofs and chimneys can be damaged. , Tree branches may break. , Vehicles can be deported. , Traffic may be disrupted, particularly on secondary roads in forest areas. Limit your trips. , Limit your speed in highway driving, especially if you drive a vehicle or hitch sensitive to wind. , Do not go for walks in forests or along the coast., In town, be vigilant against possible falling objects., Do not work on roofs and do not touch any electrical line fallen on the ground., Store or secure sensitive objects to wind or likely to be damaged., Always install power generators outside buildings. 


Meteo18 Weather Cam more information Meteo18 Weather Cam


Thunder radar more information blitzortung!


Rain radar more information rain snow radar


Visit our other weather sites:

Template documentation
and downloads

And another site



Weather Underground History page Text

Daily Summary for September 26, 2016 Units:  Metric    English   Both
« Previous Day
Next Day »
Daily Weekly Monthly Yearly Custom
  High: Low: Average:
Temperature: 20.7 °C 8.5 °C 13.4 °C
Dew Point: 12.5 °C 7.6 °C 9.3 °C
Humidity: 97 % 45 % 79 %
Wind Speed: 14.5 km/h 0.0 km/h 1.9 km/h
Wind Gust: 17.7 km/h - -
Wind:- - East
Pressure: 1023.2 hPa 1021.2 hPa -
Precipitation: 0.3 mm    
Historical Graphs
 
 
Tabular Data for September 26, 2016
Time Temperature Dew Point Pressure Wind Wind Speed Wind Gust Humidity Rainfall Rate (Hourly)
00:02 10.8 °C 9.7 °C 1022.6 hPa Calm   1.6 km/h 93 % 0.0 mm
00:12 10.4 °C 9.2 °C 1022.6 hPa NW 1.6 km/h   92 % 0.0 mm
00:17 10.4 °C 9.3 °C 1022.6 hPa North 1.6 km/h 3.2 km/h 93 % 0.0 mm
00:22 10.3 °C 9.2 °C 1022.6 hPa NNE 3.2 km/h 3.2 km/h 93 % 0.0 mm
00:27 10.3 °C 9.2 °C 1022.9 hPa Calm   3.2 km/h 93 % 0.0 mm
00:37 10.1 °C 9.0 °C 1022.6 hPa Calm   3.2 km/h 93 % 0.0 mm
00:42 10.0 °C 8.9 °C 1022.6 hPa North 1.6 km/h 1.6 km/h 93 % 0.0 mm
00:52 9.9 °C 8.8 °C 1022.6 hPa Calm   1.6 km/h 93 % 0.0 mm
01:02 9.7 °C 8.6 °C 1022.6 hPa Calm   1.6 km/h 93 % 0.0 mm
01:07 9.6 °C 8.5 °C 1022.6 hPa Calm   1.6 km/h 93 % 0.0 mm
01:12 9.6 °C 8.7 °C 1022.6 hPa WNW 1.6 km/h 1.6 km/h 94 % 0.0 mm
01:17 9.6 °C 8.7 °C 1022.6 hPa Calm   1.6 km/h 94 % 0.0 mm
01:22 9.6 °C 8.7 °C 1022.6 hPa Calm   1.6 km/h 94 % 0.0 mm
01:32 9.9 °C 9.0 °C 1022.6 hPa NNE 1.6 km/h 1.6 km/h 94 % 0.0 mm
01:37 9.9 °C 9.0 °C 1022.6 hPa Calm   4.8 km/h 94 % 0.0 mm
01:47 9.7 °C 8.8 °C 1022.6 hPa North 1.6 km/h 1.6 km/h 94 % 0.0 mm
01:52 9.7 °C 8.8 °C 1022.6 hPa Calm   1.6 km/h 94 % 0.0 mm
01:57 9.7 °C 8.8 °C 1022.6 hPa Calm   1.6 km/h 94 % 0.0 mm
02:02 9.6 °C 8.7 °C 1022.6 hPa Calm   1.6 km/h 94 % 0.0 mm
02:07 9.5 °C 8.6 °C 1022.6 hPa Calm   1.6 km/h 94 % 0.0 mm
02:12 9.3 °C 8.4 °C 1022.6 hPa Calm     94 % 0.0 mm
02:17 9.3 °C 8.5 °C 1022.9 hPa Calm     95 % 0.0 mm
02:22 9.5 °C 8.7 °C 1022.9 hPa Calm     95 % 0.0 mm
02:32 9.5 °C 8.7 °C 1022.9 hPa Calm     95 % 0.0 mm
02:37 9.4 °C 8.5 °C 1022.9 hPa Calm     94 % 0.0 mm
02:42 9.2 °C 8.3 °C 1022.9 hPa WNW 3.2 km/h   94 % 0.0 mm
02:47 9.2 °C 8.4 °C 1022.9 hPa WNW 3.2 km/h 3.2 km/h 95 % 0.0 mm
02:52 9.4 °C 8.6 °C 1022.9 hPa Calm   3.2 km/h 95 % 0.0 mm
02:57 9.3 °C 8.5 °C 1022.9 hPa Calm   3.2 km/h 95 % 0.0 mm
03:02 9.3 °C 8.5 °C 1022.9 hPa Calm   3.2 km/h 95 % 0.0 mm
03:12 8.9 °C 8.0 °C 1022.9 hPa Calm   1.6 km/h 94 % 0.0 mm
03:17 8.9 °C 8.0 °C 1022.9 hPa Calm     94 % 0.0 mm
03:22 8.6 °C 7.7 °C 1022.9 hPa Calm     94 % 0.0 mm
03:32 8.6 °C 7.8 °C 1022.9 hPa Calm     95 % 0.0 mm
03:37 8.7 °C 7.9 °C 1022.9 hPa Calm     95 % 0.0 mm
03:42 8.9 °C 8.3 °C 1022.9 hPa Calm     96 % 0.0 mm
03:47 8.8 °C 8.0 °C 1022.9 hPa Calm     95 % 0.0 mm
03:52 8.9 °C 8.3 °C 1022.9 hPa Calm     96 % 0.0 mm
03:57 9.2 °C 8.6 °C 1022.9 hPa Calm     96 % 0.0 mm
04:02 8.9 °C 8.0 °C 1022.9 hPa Calm     94 % 0.0 mm
04:12 8.5 °C 7.7 °C 1022.9 hPa WNW 1.6 km/h   95 % 0.3 mm
04:17 9.2 °C 8.7 °C 1022.6 hPa Calm   3.2 km/h 97 % 0.3 mm
04:22 9.2 °C 8.6 °C 1022.9 hPa NNE 3.2 km/h 3.2 km/h 96 % 0.3 mm
04:32 8.6 °C 7.8 °C 1022.6 hPa North 1.6 km/h 4.8 km/h 95 % 0.3 mm
04:37 8.7 °C 8.1 °C 1022.6 hPa NNW 1.6 km/h 3.2 km/h 96 % 0.3 mm
04:42 8.7 °C 7.9 °C 1022.6 hPa Calm   3.2 km/h 95 % 0.3 mm
04:47 8.7 °C 7.9 °C 1022.6 hPa Calm   3.2 km/h 95 % 0.3 mm
04:57 9.1 °C 8.5 °C 1022.6 hPa NNW 1.6 km/h 3.2 km/h 96 % 0.3 mm
05:02 9.0 °C 8.2 °C 1022.6 hPa Calm   3.2 km/h 95 % 0.3 mm
05:07 8.6 °C 7.8 °C 1022.6 hPa WNW 1.6 km/h 3.2 km/h 95 % 0.0 mm
05:12 8.6 °C 8.0 °C 1022.6 hPa Calm   3.2 km/h 96 % 0.0 mm
05:17 8.8 °C 8.2 °C 1022.6 hPa Calm   1.6 km/h 96 % 0.0 mm
05:22 8.8 °C 8.2 °C 1022.6 hPa Calm   1.6 km/h 96 % 0.0 mm
05:32 8.8 °C 8.2 °C 1022.6 hPa Calm   1.6 km/h 96 % 0.0 mm
05:42 8.7 °C 8.1 °C 1022.9 hPa Calm     96 % 0.0 mm
05:52 8.5 °C 7.7 °C 1022.9 hPa North 3.2 km/h   95 % 0.0 mm
05:57 9.1 °C 8.6 °C 1022.9 hPa NNE 1.6 km/h 3.2 km/h 97 % 0.0 mm
06:02 9.3 °C 8.8 °C 1022.9 hPa North 1.6 km/h 3.2 km/h 97 % 0.0 mm
06:12 9.4 °C 8.8 °C 1022.9 hPa Calm   3.2 km/h 96 % 0.0 mm
06:17 9.4 °C 8.8 °C 1022.9 hPa Calm   3.2 km/h 96 % 0.0 mm
06:22 9.4 °C 8.8 °C 1022.6 hPa NE 1.6 km/h 3.2 km/h 96 % 0.0 mm
06:32 9.7 °C 9.1 °C 1022.6 hPa NNE 3.2 km/h 3.2 km/h 96 % 0.0 mm
06:37 9.7 °C 9.1 °C 1022.6 hPa Calm   4.8 km/h 96 % 0.0 mm
06:42 9.6 °C 9.0 °C 1022.9 hPa Calm   4.8 km/h 96 % 0.0 mm
06:52 9.7 °C 9.1 °C 1022.6 hPa Calm   4.8 km/h 96 % 0.0 mm
07:02 9.5 °C 8.7 °C 1022.6 hPa Calm     95 % 0.0 mm
07:07 9.3 °C 8.5 °C 1022.6 hPa Calm     95 % 0.0 mm
07:17 8.9 °C 8.1 °C 1022.6 hPa Calm     95 % 0.0 mm
07:22 8.9 °C 8.3 °C 1022.9 hPa Calm     96 % 0.0 mm
07:32 8.9 °C 8.3 °C 1022.9 hPa Calm     96 % 0.0 mm
07:37 9.1 °C 8.5 °C 1022.6 hPa Calm     96 % 0.0 mm
07:42 9.1 °C 8.5 °C 1022.6 hPa Calm     96 % 0.0 mm
07:47 9.1 °C 8.5 °C 1022.6 hPa NE 3.2 km/h   96 % 0.0 mm
07:52 9.3 °C 8.8 °C 1022.6 hPa NE 1.6 km/h 3.2 km/h 97 % 0.0 mm
07:57 9.4 °C 8.9 °C 1022.9 hPa Calm   3.2 km/h 97 % 0.0 mm
08:02 9.6 °C 9.1 °C 1022.9 hPa Calm   3.2 km/h 97 % 0.0 mm
08:12 10.1 °C 9.6 °C 1022.9 hPa Calm   1.6 km/h 97 % 0.0 mm
08:17 10.2 °C 9.7 °C 1022.9 hPa Calm   1.6 km/h 97 % 0.0 mm
08:27 10.3 °C 9.8 °C 1022.9 hPa Calm     97 % 0.0 mm
08:32 10.3 °C 9.8 °C 1022.9 hPa Calm   3.2 km/h 97 % 0.0 mm
08:37 10.3 °C 9.8 °C 1022.9 hPa Calm   3.2 km/h 97 % 0.0 mm
08:42 10.3 °C 9.8 °C 1022.9 hPa Calm   3.2 km/h 97 % 0.0 mm
08:52 10.4 °C 9.9 °C 1023.2 hPa Calm     97 % 0.0 mm
08:57 10.4 °C 9.9 °C 1023.2 hPa Calm     97 % 0.0 mm
09:02 10.6 °C 10.1 °C 1023.2 hPa Calm     97 % 0.0 mm
09:07 10.7 °C 10.2 °C 1023.2 hPa Calm     97 % 0.0 mm
09:12 10.6 °C 10.1 °C 1023.2 hPa Calm     97 % 0.0 mm
09:17 10.7 °C 10.2 °C 1023.2 hPa Calm     97 % 0.0 mm
09:22 10.8 °C 10.3 °C 1023.2 hPa Calm   1.6 km/h 97 % 0.0 mm
09:27 10.9 °C 10.4 °C 1023.2 hPa Calm   1.6 km/h 97 % 0.0 mm
09:37 11.1 °C 10.6 °C 1023.2 hPa Calm     97 % 0.0 mm
09:42 11.2 °C 10.7 °C 1023.2 hPa Calm     97 % 0.0 mm
09:52 11.4 °C 10.9 °C 1023.2 hPa Calm     97 % 0.0 mm
09:57 11.7 °C 11.2 °C 1023.2 hPa Calm     97 % 0.0 mm
10:02 11.7 °C 11.2 °C 1023.2 hPa Calm     97 % 0.0 mm
10:07 11.7 °C 11.2 °C 1023.2 hPa Calm     97 % 0.0 mm
10:12 11.7 °C 11.2 °C 1023.2 hPa Calm     97 % 0.0 mm
10:17 11.7 °C 11.2 °C 1023.2 hPa NNE 1.6 km/h   97 % 0.0 mm
10:22 11.7 °C 11.2 °C 1023.2 hPa NE 1.6 km/h 4.8 km/h 97 % 0.0 mm
10:27 11.8 °C 11.3 °C 1023.2 hPa Calm   4.8 km/h 97 % 0.0 mm
10:32 11.9 °C 11.4 °C 1023.2 hPa Calm   4.8 km/h 97 % 0.0 mm
10:37 12.0 °C 11.5 °C 1023.2 hPa NNE 3.2 km/h 4.8 km/h 97 % 0.0 mm
10:42 12.1 °C 11.6 °C 1023.2 hPa NE 1.6 km/h 4.8 km/h 97 % 0.0 mm
10:47 12.2 °C 11.6 °C 1023.2 hPa NE 1.6 km/h 4.8 km/h 96 % 0.0 mm
10:52 12.3 °C 11.7 °C 1023.2 hPa NE 1.6 km/h 4.8 km/h 96 % 0.0 mm
10:57 12.4 °C 11.8 °C 1023.2 hPa Calm   4.8 km/h 96 % 0.0 mm
11:02 12.4 °C 11.8 °C 1022.9 hPa Calm   3.2 km/h 96 % 0.0 mm
11:07 12.7 °C 12.1 °C 1022.9 hPa NE 1.6 km/h 3.2 km/h 96 % 0.0 mm
11:12 12.8 °C 12.0 °C 1022.9 hPa ENE 1.6 km/h 3.2 km/h 95 % 0.0 mm
11:17 12.9 °C 12.1 °C 1022.9 hPa Calm   3.2 km/h 95 % 0.0 mm
11:22 13.2 °C 12.3 °C 1022.9 hPa Calm   3.2 km/h 94 % 0.0 mm
11:32 13.7 °C 12.3 °C 1022.9 hPa ESE 1.6 km/h 4.8 km/h 91 % 0.0 mm
11:42 14.3 °C 12.3 °C 1022.6 hPa ESE 1.6 km/h 4.8 km/h 88 % 0.0 mm
11:47 14.6 °C 12.5 °C 1022.6 hPa ESE 4.8 km/h 4.8 km/h 87 % 0.0 mm
12:02 14.8 °C 12.1 °C 1022.2 hPa Calm   6.4 km/h 84 % 0.0 mm
12:12 15.1 °C 11.9 °C 1022.2 hPa ESE 1.6 km/h 8.0 km/h 81 % 0.0 mm
12:22 14.9 °C 11.7 °C 1022.2 hPa ESE 1.6 km/h 9.7 km/h 81 % 0.0 mm
12:27 15.0 °C 12.0 °C 1021.9 hPa ENE 8.0 km/h 9.7 km/h 82 % 0.0 mm
12:32 15.1 °C 11.9 °C 1021.9 hPa East 3.2 km/h 11.3 km/h 81 % 0.0 mm
12:37 15.2 °C 12.1 °C 1021.9 hPa Calm   11.3 km/h 82 % 0.0 mm
12:42 15.3 °C 12.2 °C 1021.9 hPa Calm   11.3 km/h 82 % 0.0 mm
12:52 15.8 °C 12.2 °C 1021.9 hPa NE 3.2 km/h 11.3 km/h 79 % 0.0 mm
12:57 15.8 °C 12.2 °C 1021.9 hPa East 1.6 km/h 6.4 km/h 79 % 0.0 mm
13:02 15.8 °C 12.0 °C 1021.9 hPa Calm   6.4 km/h 78 % 0.0 mm
13:07 16.0 °C 11.8 °C 1021.9 hPa ENE 1.6 km/h 6.4 km/h 76 % 0.0 mm
13:12 16.3 °C 12.1 °C 1022.2 hPa Calm   6.4 km/h 76 % 0.0 mm
13:17 16.5 °C 12.1 °C 1022.2 hPa Calm   4.8 km/h 75 % 0.0 mm
13:22 16.9 °C 12.0 °C 1022.2 hPa Calm   4.8 km/h 73 % 0.0 mm
13:27 16.9 °C 12.0 °C 1022.2 hPa Calm   4.8 km/h 73 % 0.0 mm
13:32 17.1 °C 12.2 °C 1022.2 hPa Calm   4.8 km/h 73 % 0.0 mm
13:42 17.3 °C 12.0 °C 1022.2 hPa Calm   4.8 km/h 71 % 0.0 mm
13:47 17.4 °C 12.3 °C 1022.2 hPa Calm   4.8 km/h 72 % 0.0 mm
13:52 17.4 °C 12.1 °C 1022.2 hPa North 4.8 km/h 4.8 km/h 71 % 0.0 mm
13:57 17.3 °C 12.0 °C 1021.9 hPa ENE 3.2 km/h 6.4 km/h 71 % 0.0 mm
14:02 17.3 °C 11.8 °C 1021.9 hPa East 3.2 km/h 6.4 km/h 70 % 0.0 mm
14:07 17.3 °C 11.8 °C 1021.9 hPa NW 1.6 km/h 6.4 km/h 70 % 0.0 mm
14:12 17.6 °C 11.8 °C 1021.9 hPa Calm   6.4 km/h 69 % 0.0 mm
14:17 18.1 °C 11.6 °C 1021.9 hPa East 1.6 km/h 6.4 km/h 66 % 0.0 mm
14:27 18.4 °C 11.2 °C 1021.9 hPa NE 4.8 km/h 9.7 km/h 63 % 0.0 mm
14:32 18.5 °C 11.1 °C 1021.9 hPa ENE 6.4 km/h 9.7 km/h 62 % 0.0 mm
14:42 19.2 °C 10.7 °C 1021.9 hPa ESE 1.6 km/h 11.3 km/h 58 % 0.0 mm
14:52 19.2 °C 9.9 °C 1021.6 hPa NNE 6.4 km/h 8.0 km/h 55 % 0.0 mm
14:57 19.2 °C 8.5 °C 1021.6 hPa ENE 3.2 km/h 12.9 km/h 50 % 0.0 mm
15:02 19.1 °C 9.3 °C 1021.6 hPa East 3.2 km/h 12.9 km/h 53 % 0.0 mm
15:07 19.2 °C 8.8 °C 1021.6 hPa ENE 3.2 km/h 11.3 km/h 51 % 0.0 mm
15:12 19.7 °C 8.4 °C 1021.6 hPa ENE 9.7 km/h 11.3 km/h 48 % 0.0 mm
15:17 19.6 °C 8.0 °C 1021.6 hPa NE 1.6 km/h 11.3 km/h 47 % 0.0 mm
15:22 19.8 °C 7.8 °C 1021.6 hPa SE 1.6 km/h 11.3 km/h 46 % 0.0 mm
15:27 19.5 °C 7.6 °C 1021.6 hPa NE 4.8 km/h 11.3 km/h 46 % 0.0 mm
15:32 19.6 °C 8.6 °C 1021.6 hPa ENE 4.8 km/h 11.3 km/h 49 % 0.0 mm
15:37 19.9 °C 9.2 °C 1021.6 hPa SE 1.6 km/h 9.7 km/h 50 % 0.0 mm
15:42 20.0 °C 8.7 °C 1021.6 hPa SE 6.4 km/h 9.7 km/h 48 % 0.0 mm
15:52 20.2 °C 8.5 °C 1021.6 hPa SSE 1.6 km/h 9.7 km/h 47 % 0.0 mm
15:57 20.3 °C 8.9 °C 1021.6 hPa Calm   8.0 km/h 48 % 0.0 mm
16:02 20.4 °C 9.0 °C 1021.6 hPa South 6.4 km/h 8.0 km/h 48 % 0.0 mm
16:07 20.4 °C 9.3 °C 1021.6 hPa SSW 6.4 km/h 9.7 km/h 49 % 0.0 mm
16:12 20.4 °C 9.0 °C 1021.6 hPa SW 4.8 km/h 9.7 km/h 48 % 0.0 mm
16:17 20.5 °C 9.1 °C 1021.6 hPa SW 4.8 km/h 8.0 km/h 48 % 0.0 mm
16:22 20.3 °C 8.6 °C 1021.6 hPa WSW 4.8 km/h 8.0 km/h 47 % 0.0 mm
16:32 20.7 °C 8.3 °C 1021.6 hPa Calm   11.3 km/h 45 % 0.0 mm
16:47 20.4 °C 8.7 °C 1021.6 hPa NE 4.8 km/h 16.1 km/h 47 % 0.0 mm
16:52 20.3 °C 8.6 °C 1021.6 hPa ENE 6.4 km/h 16.1 km/h 47 % 0.0 mm
16:57 20.2 °C 8.5 °C 1021.2 hPa NE 12.9 km/h 16.1 km/h 47 % 0.0 mm
17:02 19.9 °C 8.6 °C 1021.2 hPa NE 4.8 km/h 16.1 km/h 48 % 0.0 mm
17:07 19.9 °C 8.6 °C 1021.6 hPa NE 14.5 km/h 14.5 km/h 48 % 0.0 mm
17:12 19.6 °C 8.9 °C 1021.6 hPa ENE 9.7 km/h 14.5 km/h 50 % 0.0 mm
17:22 19.7 °C 9.0 °C 1021.6 hPa North 8.0 km/h 17.7 km/h 50 % 0.0 mm
17:32 19.6 °C 8.6 °C 1021.6 hPa East 4.8 km/h 17.7 km/h 49 % 0.0 mm
17:37 19.5 °C 8.2 °C 1021.6 hPa NE 11.3 km/h 14.5 km/h 48 % 0.0 mm
17:47 19.3 °C 8.0 °C 1021.6 hPa NE 4.8 km/h 16.1 km/h 48 % 0.0 mm
17:52 19.3 °C 7.7 °C 1021.6 hPa ENE 8.0 km/h 16.1 km/h 47 % 0.0 mm
17:57 19.3 °C 7.7 °C 1021.6 hPa ENE 3.2 km/h 12.9 km/h 47 % 0.0 mm
18:02 19.3 °C 7.7 °C 1021.6 hPa East 3.2 km/h 12.9 km/h 47 % 0.0 mm
18:08 19.2 °C 7.6 °C 1021.6 hPa East 3.2 km/h 12.9 km/h 47 % 0.0 mm
18:17 19.3 °C 7.7 °C 1021.6 hPa ENE 6.4 km/h 11.3 km/h 47 % 0.0 mm
18:22 19.3 °C 7.7 °C 1021.6 hPa NE 1.6 km/h 9.7 km/h 47 % 0.0 mm
18:32 19.2 °C 7.9 °C 1021.6 hPa NNE 4.8 km/h 9.7 km/h 48 % 0.0 mm
18:37 18.9 °C 8.2 °C 1021.9 hPa NNE 9.7 km/h 9.7 km/h 50 % 0.0 mm
18:42 18.7 °C 8.1 °C 1021.9 hPa North 8.0 km/h 14.5 km/h 50 % 0.0 mm
18:52 18.2 °C 8.2 °C 1021.9 hPa NE 6.4 km/h 14.5 km/h 52 % 0.0 mm
19:02 17.8 °C 8.4 °C 1021.9 hPa NNE 4.8 km/h 11.3 km/h 54 % 0.0 mm
19:07 17.6 °C 8.5 °C 1021.9 hPa NE 6.4 km/h 8.0 km/h 55 % 0.0 mm
19:12 17.4 °C 8.3 °C 1021.9 hPa NE 3.2 km/h 8.0 km/h 55 % 0.0 mm
19:22 17.0 °C 8.4 °C 1021.9 hPa NNE 3.2 km/h 8.0 km/h 57 % 0.0 mm
19:27 16.8 °C 8.5 °C 1021.9 hPa NE 3.2 km/h 8.0 km/h 58 % 0.0 mm
19:32 16.7 °C 8.6 °C 1022.2 hPa North 1.6 km/h 8.0 km/h 59 % 0.0 mm
19:37 16.6 °C 8.8 °C 1022.2 hPa North 1.6 km/h 9.7 km/h 60 % 0.0 mm
19:42 16.4 °C 8.6 °C 1022.2 hPa North 4.8 km/h 9.7 km/h 60 % 0.0 mm
19:47 16.2 °C 8.7 °C 1022.2 hPa NNE 1.6 km/h 8.0 km/h 61 % 0.0 mm
19:52 16.0 °C 8.7 °C 1022.2 hPa NNE 4.8 km/h 8.0 km/h 62 % 0.0 mm
19:57 15.9 °C 8.9 °C 1022.2 hPa NE 4.8 km/h 8.0 km/h 63 % 0.0 mm
20:02 15.8 °C 8.8 °C 1022.2 hPa NE 1.6 km/h 8.0 km/h 63 % 0.0 mm
20:12 15.4 °C 8.9 °C 1022.6 hPa NNE 3.2 km/h 8.0 km/h 65 % 0.0 mm
20:22 15.3 °C 8.8 °C 1022.6 hPa NE 4.8 km/h 9.7 km/h 65 % 0.0 mm
20:27 15.2 °C 8.9 °C 1022.9 hPa NNE 3.2 km/h 9.7 km/h 66 % 0.0 mm
20:32 15.2 °C 8.9 °C 1022.9 hPa NE 4.8 km/h 9.7 km/h 66 % 0.0 mm
20:37 15.1 °C 8.8 °C 1022.9 hPa NE 4.8 km/h 9.7 km/h 66 % 0.0 mm
20:47 15.2 °C 9.1 °C 1022.9 hPa NE 3.2 km/h 9.7 km/h 67 % 0.0 mm
20:57 14.8 °C 8.7 °C 1022.6 hPa NE 1.6 km/h 9.7 km/h 67 % 0.0 mm
21:02 14.7 °C 8.9 °C 1022.6 hPa NE 1.6 km/h 9.7 km/h 68 % 0.0 mm
21:12 14.6 °C 8.8 °C 1022.6 hPa NNE 6.4 km/h 6.4 km/h 68 % 0.0 mm
21:17 14.7 °C 8.9 °C 1022.6 hPa NE 4.8 km/h 9.7 km/h 68 % 0.0 mm
21:22 14.7 °C 8.9 °C 1022.9 hPa NNE 8.0 km/h 9.7 km/h 68 % 0.0 mm
21:27 14.7 °C 8.6 °C 1022.9 hPa NNE 4.8 km/h 11.3 km/h 67 % 0.0 mm
21:37 14.6 °C 8.8 °C 1022.9 hPa Calm   11.3 km/h 68 % 0.0 mm
21:42 14.4 °C 8.6 °C 1022.9 hPa NE 3.2 km/h 11.3 km/h 68 % 0.0 mm
21:52 14.2 °C 8.4 °C 1022.9 hPa Calm   4.8 km/h 68 % 0.0 mm
22:02 13.9 °C 8.3 °C 1022.9 hPa NNE 1.6 km/h 3.2 km/h 69 % 0.0 mm
22:12 13.7 °C 8.3 °C 1022.9 hPa Calm   3.2 km/h 70 % 0.0 mm
22:22 13.2 °C 8.3 °C 1022.9 hPa WNW 1.6 km/h 3.2 km/h 72 % 0.0 mm
22:32 13.2 °C 8.3 °C 1022.9 hPa Calm   1.6 km/h 72 % 0.0 mm
22:42 13.1 °C 8.2 °C 1022.9 hPa Calm   1.6 km/h 72 % 0.0 mm
22:52 13.0 °C 8.3 °C 1022.9 hPa Calm   1.6 km/h 73 % 0.0 mm
22:57 12.9 °C 8.2 °C 1023.2 hPa Calm   1.6 km/h 73 % 0.0 mm
23:02 12.9 °C 8.2 °C 1023.2 hPa Calm   1.6 km/h 73 % 0.0 mm
23:12 12.6 °C 7.9 °C 1023.2 hPa Calm   4.8 km/h 73 % 0.0 mm
23:17 12.4 °C 8.1 °C 1023.2 hPa Calm   4.8 km/h 75 % 0.0 mm
23:22 12.3 °C 7.8 °C 1023.2 hPa Calm   4.8 km/h 74 % 0.0 mm
23:27 12.3 °C 8.0 °C 1022.9 hPa Calm   1.6 km/h 75 % 0.0 mm
23:32 12.4 °C 7.9 °C 1022.9 hPa Calm   1.6 km/h 74 % 0.0 mm
23:37 12.6 °C 8.1 °C 1022.9 hPa WNW 1.6 km/h 1.6 km/h 74 % 0.0 mm
23:42 12.3 °C 8.2 °C 1022.9 hPa WNW 1.6 km/h 1.6 km/h 76 % 0.0 mm
23:47 12.1 °C 8.0 °C 1022.9 hPa WNW 1.6 km/h 1.6 km/h 76 % 0.0 mm
23:52 12.1 °C 8.0 °C 1022.9 hPa Calm   1.6 km/h 76 % 0.0 mm
Meteo18
Compliments of Weather Underground - 4 mb

Script developed by  Jim McMurry - jmcmurry@mwt.net Adapted for the template by  Wim van der Kuil - Leuven-Template.eu

You find our weather info also at:

European Weather Network

Weather Underground

Equipment we use:

Weather-station
Davis Vue

Weather-program
Meteohub

Weather-server
Raspberry PI 2 B+

Provider
1 and 1

Davis Vue

Meteohub

Raspberry PI 2 B+

1 and 1